Time;durP1;ratioP1;P1;durP2;ratioP2;P2;SDS_P1;SDS_P2;PMS_P1;PMS_P2;Temp;Humidity;BMP_temperature;BMP_pressure;BME280_temperature;BME280_humidity;BME280_pressure;Samples;Min_cycle;Max_cycle;Signal;HPM_P1;HPM_P2
2021/12/24 00:01:39;;;;;;;21.88;11.15;;;;;;;;;;4885462;29;20045;-91
2021/12/24 00:04:09;;;;;;;19.63;10.63;;;;;;;;;;4886055;29;20052;-91
2021/12/24 00:06:35;;;;;;;24.33;11.35;;;;;;;;;;4885257;29;20087;-91
2021/12/24 00:09:01;;;;;;;21.13;10.98;;;;;;;;;;4886094;29;20066;-91
2021/12/24 00:11:27;;;;;;;17.23;9.93;;;;;;;;;;4886715;29;20052;-91
2021/12/24 00:13:54;;;;;;;18.23;10.30;;;;;;;;;;4886905;29;20057;-91
2021/12/24 00:18:56;;;;;;;19.58;11.27;;;;;;;;;;4885851;29;20494;-91
2021/12/24 00:35:16;;;;;;;16.98;9.60;;;;;;;;;;4886051;29;20052;-90
2021/12/24 00:37:43;;;;;;;14.55;9.23;;;;;;;;;;4885086;29;20418;-92
2021/12/24 00:40:15;;;;;;;22.60;10.57;;;;;;;;;;4884790;29;20059;-91
2021/12/24 00:42:44;;;;;;;17.10;9.52;;;;;;;;;;4886186;29;20135;-90
2021/12/24 00:45:14;;;;;;;19.08;10.60;;;;;;;;;;4885957;29;20398;-91
2021/12/24 00:47:40;;;;;;;14.32;8.80;;;;;;;;;;4884701;29;20059;-91
2021/12/24 00:50:10;;;;;;;15.85;8.77;;;;;;;;;;4884690;29;20081;-92
2021/12/24 00:52:49;;;;;;;17.55;9.77;;;;;;;;;;4883637;29;20410;-93
2021/12/24 00:55:17;;;;;;;20.90;9.52;;;;;;;;;;4884575;29;20052;-92
2021/12/24 00:57:44;;;;;;;15.63;9.32;;;;;;;;;;4884342;29;20053;-93
2021/12/24 01:00:11;;;;;;;15.50;8.77;;;;;;;;;;4884609;29;20044;-93
2021/12/24 01:02:37;;;;;;;11.98;7.80;;;;;;;;;;4885386;29;20051;-95
2021/12/24 01:05:04;;;;;;;16.10;8.93;;;;;;;;;;4885048;29;20406;-93
2021/12/24 01:07:30;;;;;;;11.68;8.00;;;;;;;;;;4885078;29;20120;-95
2021/12/24 01:09:56;;;;;;;14.82;8.70;;;;;;;;;;4885016;29;20076;-93
2021/12/24 01:12:23;;;;;;;16.80;8.05;;;;;;;;;;4885275;29;20056;-94
2021/12/24 01:14:50;;;;;;;13.18;7.45;;;;;;;;;;4884117;29;20056;-95
2021/12/24 01:19:45;;;;;;;11.23;7.22;;;;;;;;;;4884838;29;20580;-92
2021/12/24 01:25:07;;;;;;;9.10;6.25;;;;;;;;;;4886638;29;20048;-94
2021/12/24 01:38:19;;;;;;;12.90;6.70;;;;;;;;;;4885422;29;20100;-96
2021/12/24 01:43:27;;;;;;;10.95;6.65;;;;;;;;;;4884870;29;20045;-92
2021/12/24 01:45:55;;;;;;;12.90;6.93;;;;;;;;;;4884502;29;20112;-91
2021/12/24 01:48:21;;;;;;;11.77;6.18;;;;;;;;;;4884718;29;20048;-92
2021/12/24 01:50:48;;;;;;;8.43;5.18;;;;;;;;;;4884925;29;20127;-93
2021/12/24 01:53:15;;;;;;;7.25;4.90;;;;;;;;;;4885299;29;20049;-93
2021/12/24 01:55:42;;;;;;;7.43;4.65;;;;;;;;;;4884971;29;20051;-92
2021/12/24 01:58:08;;;;;;;9.73;5.30;;;;;;;;;;4884325;29;20041;-92
2021/12/24 02:00:37;;;;;;;5.85;4.22;;;;;;;;;;4884942;29;20048;-93
2021/12/24 02:03:04;;;;;;;7.38;4.63;;;;;;;;;;4884970;29;20139;-92
2021/12/24 02:05:31;;;;;;;8.07;4.45;;;;;;;;;;4884250;29;20048;-93
2021/12/24 02:07:58;;;;;;;5.05;4.40;;;;;;;;;;4883329;29;20064;-92
2021/12/24 02:10:24;;;;;;;8.35;4.15;;;;;;;;;;4883545;29;20296;-93
2021/12/24 02:12:51;;;;;;;7.28;4.63;;;;;;;;;;4884932;29;20044;-93
2021/12/24 02:15:35;;;;;;;10.00;4.57;;;;;;;;;;4899768;29;20087;-92
2021/12/24 02:18:22;;;;;;;8.02;5.15;;;;;;;;;;4900041;29;20498;-92
2021/12/24 02:29:08;;;;;;;8.25;4.22;;;;;;;;;;4882859;29;20104;-93
2021/12/24 02:31:35;;;;;;;6.90;4.20;;;;;;;;;;4882712;29;20112;-92
2021/12/24 02:34:01;;;;;;;11.00;6.25;;;;;;;;;;4882865;29;20100;-92
2021/12/24 02:36:28;;;;;;;11.32;5.63;;;;;;;;;;4883099;29;20040;-92
2021/12/24 02:38:55;;;;;;;10.60;5.57;;;;;;;;;;4882849;29;20236;-92
2021/12/24 02:41:21;;;;;;;9.85;6.47;;;;;;;;;;4882834;29;20514;-92
2021/12/24 02:43:47;;;;;;;12.02;6.18;;;;;;;;;;4883448;29;20143;-91
2021/12/24 02:46:25;;;;;;;9.65;6.15;;;;;;;;;;4883664;29;20072;-91
2021/12/24 02:54:09;;;;;;;16.02;7.72;;;;;;;;;;4883233;29;20144;-92
2021/12/24 02:56:36;;;;;;;16.48;7.78;;;;;;;;;;4884383;29;20127;-91
2021/12/24 02:59:07;;;;;;;14.27;6.85;;;;;;;;;;4884200;29;20048;-91
2021/12/24 03:01:34;;;;;;;18.80;8.35;;;;;;;;;;4899287;29;20423;-91
2021/12/24 03:04:01;;;;;;;18.30;9.48;;;;;;;;;;4899298;29;20164;-91
2021/12/24 03:06:29;;;;;;;17.88;9.05;;;;;;;;;;4885983;29;20044;-92
2021/12/24 03:08:55;;;;;;;17.60;8.82;;;;;;;;;;4891800;29;20128;-93
2021/12/24 03:11:22;;;;;;;27.23;10.15;;;;;;;;;;4891359;29;20100;-91
2021/12/24 03:13:49;;;;;;;23.88;10.52;;;;;;;;;;4887197;29;20545;-92
2021/12/24 03:16:16;;;;;;;47.17;13.05;;;;;;;;;;4888460;29;20054;-91
2021/12/24 03:18:43;;;;;;;32.50;11.15;;;;;;;;;;4889241;29;20135;-93
2021/12/24 03:23:40;;;;;;;48.78;14.38;;;;;;;;;;4895550;29;20045;-96
2021/12/24 03:26:07;;;;;;;37.00;12.98;;;;;;;;;;4878496;29;20051;-91
2021/12/24 03:28:33;;;;;;;34.13;10.73;;;;;;;;;;4885466;29;20057;-91
2021/12/24 03:31:00;;;;;;;35.42;11.38;;;;;;;;;;4886355;29;20077;-92
2021/12/24 03:33:26;;;;;;;32.65;12.48;;;;;;;;;;4901184;29;20108;-93
2021/12/24 03:35:54;;;;;;;45.40;13.65;;;;;;;;;;4886116;29;20059;-93
2021/12/24 03:38:21;;;;;;;29.02;11.95;;;;;;;;;;4885728;29;20077;-93
2021/12/24 03:40:47;;;;;;;34.30;12.82;;;;;;;;;;4885815;29;20048;-92
2021/12/24 03:43:13;;;;;;;56.88;14.95;;;;;;;;;;4885929;29;20059;-92
2021/12/24 03:45:55;;;;;;;43.00;14.93;;;;;;;;;;4885219;29;20047;-93
2021/12/24 03:48:38;;;;;;;48.90;12.85;;;;;;;;;;4885658;29;20459;-92
2021/12/24 03:51:26;;;;;;;48.60;15.67;;;;;;;;;;4894014;29;20056;-92
2021/12/24 03:56:37;;;;;;;41.38;14.18;;;;;;;;;;4885404;29;20045;-92
2021/12/24 03:59:03;;;;;;;47.15;16.13;;;;;;;;;;4885817;29;20509;-92
2021/12/24 04:01:30;;;;;;;58.47;14.68;;;;;;;;;;4885681;29;20148;-91
2021/12/24 04:03:56;;;;;;;44.53;14.73;;;;;;;;;;4884969;29;20135;-92
2021/12/24 04:06:22;;;;;;;43.33;15.73;;;;;;;;;;4902491;29;20083;-91
2021/12/24 04:08:48;;;;;;;46.72;15.10;;;;;;;;;;4884873;29;20060;-92
2021/12/24 04:11:14;;;;;;;27.15;9.23;;;;;;;;;;4885297;29;20056;-90
2021/12/24 04:13:43;;;;;;;38.83;14.30;;;;;;;;;;4902463;29;20100;-92
2021/12/24 04:16:10;;;;;;;38.53;15.10;;;;;;;;;;4900927;29;20040;-91
2021/12/24 04:18:46;;;;;;;41.13;13.10;;;;;;;;;;4901520;29;20081;-91
2021/12/24 04:26:41;;;;;;;29.48;13.15;;;;;;;;;;4884011;29;20057;-91
2021/12/24 04:29:08;;;;;;;26.35;12.30;;;;;;;;;;4885299;29;20059;-91
2021/12/24 04:31:43;;;;;;;29.15;12.50;;;;;;;;;;4885460;29;20048;-92
2021/12/24 04:34:11;;;;;;;24.55;12.68;;;;;;;;;;4899040;29;20049;-92
2021/12/24 05:03:43;;;;;;;26.95;12.40;;;;;;;;;;4887508;29;20048;-96
2021/12/24 05:08:43;;;;;;;21.45;13.07;;;;;;;;;;4886930;29;20506;-96
2021/12/24 05:11:12;;;;;;;40.05;14.23;;;;;;;;;;4880913;29;20063;-95
2021/12/24 05:13:39;;;;;;;30.90;14.52;;;;;;;;;;4894898;29;20108;-96
2021/12/24 05:16:18;;;;;;;36.67;15.05;;;;;;;;;;4886184;29;20450;-96
2021/12/24 05:21:42;;;;;;;46.65;15.95;;;;;;;;;;4900364;29;20067;-92
2021/12/24 05:24:13;;;;;;;25.75;13.85;;;;;;;;;;4872936;29;20063;-96
2021/12/24 05:26:40;;;;;;;32.17;13.80;;;;;;;;;;4902371;29;20025;-95
2021/12/24 05:29:07;;;;;;;41.35;15.10;;;;;;;;;;4888307;29;20140;-96
2021/12/24 05:31:33;;;;;;;37.78;14.98;;;;;;;;;;4902112;29;20409;-96
2021/12/24 05:34:00;;;;;;;31.70;13.48;;;;;;;;;;4886034;29;20053;-93
2021/12/24 05:36:26;;;;;;;32.03;11.45;;;;;;;;;;4884546;29;20069;-94
2021/12/24 05:38:52;;;;;;;25.52;12.90;;;;;;;;;;4885300;29;20103;-96
2021/12/24 05:41:21;;;;;;;25.58;10.38;;;;;;;;;;4886032;29;20045;-96
2021/12/24 05:43:48;;;;;;;27.05;12.25;;;;;;;;;;4885680;29;20486;-94
2021/12/24 05:46:15;;;;;;;29.90;11.10;;;;;;;;;;4887390;29;20048;-96
2021/12/24 05:48:41;;;;;;;18.17;9.35;;;;;;;;;;4885229;29;20169;-96
2021/12/24 05:51:09;;;;;;;47.42;10.77;;;;;;;;;;4900300;29;20131;-93
2021/12/24 05:53:35;;;;;;;21.17;9.05;;;;;;;;;;4884852;29;20051;-94
2021/12/24 05:56:01;;;;;;;26.65;9.68;;;;;;;;;;4885141;29;20041;-93
2021/12/24 05:58:31;;;;;;;27.48;9.30;;;;;;;;;;4883567;29;20052;-93
2021/12/24 06:00:57;;;;;;;29.70;9.43;;;;;;;;;;4883731;29;20047;-93
2021/12/24 06:03:23;;;;;;;24.90;10.13;;;;;;;;;;4884213;29;20045;-93
2021/12/24 06:05:49;;;;;;;29.02;8.65;;;;;;;;;;4884228;29;20040;-95
2021/12/24 06:08:15;;;;;;;34.10;9.73;;;;;;;;;;4883624;29;20048;-96
2021/12/24 06:10:42;;;;;;;30.55;8.68;;;;;;;;;;4883810;29;20048;-94
2021/12/24 06:13:08;;;;;;;23.17;9.18;;;;;;;;;;4883609;29;20052;-94
2021/12/24 06:15:44;;;;;;;46.20;11.13;;;;;;;;;;4883630;29;20044;-92
2021/12/24 06:18:13;;;;;;;29.50;8.30;;;;;;;;;;4883704;29;20051;-93
2021/12/24 06:20:43;;;;;;;22.73;9.10;;;;;;;;;;4884362;29;20056;-92
2021/12/24 06:23:10;;;;;;;23.10;8.60;;;;;;;;;;4884107;29;20087;-92
2021/12/24 06:28:32;;;;;;;15.13;6.43;;;;;;;;;;4856900;29;20053;-93
2021/12/24 06:30:58;;;;;;;24.08;7.70;;;;;;;;;;4848945;29;20183;-94
2021/12/24 06:33:25;;;;;;;21.55;7.80;;;;;;;;;;4864384;29;20083;-91
2021/12/24 06:35:54;;;;;;;18.38;6.82;;;;;;;;;;4848966;29;20080;-92
2021/12/24 06:38:20;;;;;;;28.15;9.32;;;;;;;;;;4848261;29;20093;-92
2021/12/24 06:40:46;;;;;;;26.27;7.70;;;;;;;;;;4849254;29;20089;-93
2021/12/24 06:43:12;;;;;;;21.95;8.27;;;;;;;;;;4848050;29;20080;-92
2021/12/24 06:45:38;;;;;;;16.85;7.97;;;;;;;;;;4848205;29;20053;-92
2021/12/24 06:48:05;;;;;;;18.58;7.57;;;;;;;;;;4848730;29;20056;-93
2021/12/24 06:50:34;;;;;;;36.97;8.25;;;;;;;;;;4849845;29;20499;-92
2021/12/24 06:53:00;;;;;;;20.58;8.02;;;;;;;;;;4852682;29;20056;-92
2021/12/24 06:55:26;;;;;;;10.73;6.07;;;;;;;;;;4851884;29;20041;-94
2021/12/24 06:57:52;;;;;;;15.05;7.78;;;;;;;;;;4852193;29;20087;-93
2021/12/24 07:00:22;;;;;;;23.13;7.28;;;;;;;;;;4852251;29;20068;-93
2021/12/24 07:02:49;;;;;;;23.30;8.63;;;;;;;;;;4866713;29;20045;-93
2021/12/24 07:05:16;;;;;;;19.55;9.40;;;;;;;;;;4862843;29;20418;-92
2021/12/24 07:07:42;;;;;;;25.33;6.82;;;;;;;;;;4902234;29;20056;-91
2021/12/24 07:10:09;;;;;;;24.25;7.65;;;;;;;;;;4886437;29;20577;-92
2021/12/24 07:12:35;;;;;;;17.48;8.00;;;;;;;;;;4886282;29;20060;-91
2021/12/24 07:15:01;;;;;;;18.05;6.40;;;;;;;;;;4886737;29;20048;-92
2021/12/24 07:17:27;;;;;;;17.08;6.63;;;;;;;;;;4902082;29;20044;-89
2021/12/24 07:19:53;;;;;;;9.07;4.63;;;;;;;;;;4887194;29;20052;-90
2021/12/24 07:22:20;;;;;;;12.90;5.47;;;;;;;;;;4886600;29;20048;-91
2021/12/24 07:24:46;;;;;;;9.02;3.90;;;;;;;;;;4885912;29;20052;-90
2021/12/24 07:27:12;;;;;;;7.88;3.60;;;;;;;;;;4886846;29;20131;-90
2021/12/24 07:29:38;;;;;;;11.15;4.75;;;;;;;;;;4886050;29;20052;-90
2021/12/24 07:32:05;;;;;;;13.93;5.40;;;;;;;;;;4885849;29;20107;-91
2021/12/24 07:34:31;;;;;;;11.57;5.18;;;;;;;;;;4886025;29;20060;-92
2021/12/24 07:36:58;;;;;;;17.13;5.90;;;;;;;;;;4885817;29;20135;-91
2021/12/24 07:39:24;;;;;;;9.38;3.92;;;;;;;;;;4885746;29;20049;-91
2021/12/24 07:41:50;;;;;;;10.85;4.93;;;;;;;;;;4886541;29;20482;-93
2021/12/24 07:44:17;;;;;;;13.98;5.53;;;;;;;;;;4885531;29;20155;-93
2021/12/24 07:46:49;;;;;;;9.93;4.88;;;;;;;;;;4886510;29;20059;-91
2021/12/24 07:52:09;;;;;;;17.83;4.82;;;;;;;;;;4885870;29;20096;-92
2021/12/24 07:54:54;;;;;;;13.18;5.38;;;;;;;;;;4885334;29;20055;-93
2021/12/24 07:57:20;;;;;;;18.65;5.13;;;;;;;;;;4885900;29;20059;-92
2021/12/24 07:59:47;;;;;;;14.95;5.70;;;;;;;;;;4885863;29;20041;-92
2021/12/24 08:02:15;;;;;;;12.38;6.15;;;;;;;;;;4886132;29;20048;-93
2021/12/24 08:04:41;;;;;;;11.48;5.20;;;;;;;;;;4887184;29;20040;-93
2021/12/24 08:07:08;;;;;;;12.07;4.80;;;;;;;;;;4886403;29;20096;-93
2021/12/24 08:09:37;;;;;;;17.80;6.00;;;;;;;;;;4886239;29;20064;-94
2021/12/24 08:12:04;;;;;;;10.68;5.13;;;;;;;;;;4885776;29;20044;-93
2021/12/24 08:14:30;;;;;;;15.68;6.13;;;;;;;;;;4886824;29;20113;-93
2021/12/24 08:16:56;;;;;;;22.13;6.40;;;;;;;;;;4886153;29;20127;-94
2021/12/24 08:19:22;;;;;;;11.98;5.63;;;;;;;;;;4885303;29;20048;-96
2021/12/24 08:21:48;;;;;;;16.77;7.20;;;;;;;;;;4885806;29;20087;-95
2021/12/24 08:24:14;;;;;;;12.63;5.63;;;;;;;;;;4901868;29;20139;-95
2021/12/24 08:26:41;;;;;;;25.45;6.53;;;;;;;;;;4885574;29;20059;-94
2021/12/24 08:29:07;;;;;;;26.85;7.63;;;;;;;;;;4886107;29;20048;-96
2021/12/24 08:31:34;;;;;;;21.63;7.05;;;;;;;;;;4887734;29;20428;-94
2021/12/24 08:34:01;;;;;;;12.38;5.10;;;;;;;;;;4887098;29;20561;-94
2021/12/24 08:36:27;;;;;;;14.32;6.20;;;;;;;;;;4887120;29;20494;-93
2021/12/24 08:38:55;;;;;;;9.02;4.97;;;;;;;;;;4902120;29;20052;-93
2021/12/24 08:41:21;;;;;;;23.85;6.38;;;;;;;;;;4888745;29;20402;-95
2021/12/24 08:43:49;;;;;;;26.08;7.03;;;;;;;;;;4888920;29;20052;-94
2021/12/24 08:46:18;;;;;;;19.10;7.15;;;;;;;;;;4888354;29;20040;-94
2021/12/24 08:48:44;;;;;;;20.85;6.82;;;;;;;;;;4887951;29;20670;-95
2021/12/24 08:51:11;;;;;;;18.33;6.20;;;;;;;;;;4888280;29;20135;-94
2021/12/24 08:53:40;;;;;;;12.98;5.82;;;;;;;;;;4889184;29;20056;-93
2021/12/24 08:56:07;;;;;;;20.20;6.05;;;;;;;;;;4888630;29;20040;-95
2021/12/24 08:58:33;;;;;;;15.88;6.05;;;;;;;;;;4891336;29;20375;-94
2021/12/24 09:01:00;;;;;;;11.63;4.35;;;;;;;;;;4888419;29;20063;-93
2021/12/24 09:03:26;;;;;;;10.77;5.45;;;;;;;;;;4886168;29;20048;-92
2021/12/24 09:05:53;;;;;;;12.95;4.38;;;;;;;;;;4885773;29;20180;-92
2021/12/24 09:08:19;;;;;;;11.80;5.53;;;;;;;;;;4885459;29;20055;-92
2021/12/24 09:10:45;;;;;;;13.40;4.60;;;;;;;;;;4884383;29;20056;-91
2021/12/24 09:13:11;;;;;;;13.75;5.50;;;;;;;;;;4883651;29;20048;-92
2021/12/24 09:15:37;;;;;;;7.90;4.18;;;;;;;;;;4884390;29;20100;-92
2021/12/24 09:18:04;;;;;;;12.35;3.70;;;;;;;;;;4884248;29;20143;-91
2021/12/24 09:20:36;;;;;;;9.15;3.33;;;;;;;;;;4899024;29;20044;-91
2021/12/24 09:23:02;;;;;;;7.97;3.28;;;;;;;;;;4883707;29;20096;-92
2021/12/24 09:25:28;;;;;;;8.18;2.75;;;;;;;;;;4884113;29;20044;-92
2021/12/24 09:27:55;;;;;;;9.35;2.58;;;;;;;;;;4883843;29;20058;-92
2021/12/24 09:30:21;;;;;;;8.82;2.95;;;;;;;;;;4885382;29;20383;-92
2021/12/24 09:32:47;;;;;;;7.82;3.20;;;;;;;;;;4884442;29;20044;-93
2021/12/24 09:35:14;;;;;;;4.32;2.35;;;;;;;;;;4884048;29;20052;-93
2021/12/24 09:37:40;;;;;;;6.00;2.78;;;;;;;;;;4884138;29;20084;-93
2021/12/24 09:40:07;;;;;;;3.88;2.47;;;;;;;;;;4883860;29;20052;-94
2021/12/24 09:42:34;;;;;;;2.97;2.40;;;;;;;;;;4899912;29;20191;-93
2021/12/24 09:45:00;;;;;;;1.90;1.80;;;;;;;;;;4884264;29;20096;-94
2021/12/24 09:47:26;;;;;;;2.03;1.55;;;;;;;;;;4884061;29;20144;-95
2021/12/24 09:49:53;;;;;;;1.40;1.30;;;;;;;;;;4885200;29;20045;-94
2021/12/24 09:52:20;;;;;;;1.88;1.77;;;;;;;;;;4883854;29;20048;-95
2021/12/24 09:54:49;;;;;;;2.55;1.90;;;;;;;;;;4884310;29;20418;-94
2021/12/24 09:57:15;;;;;;;2.25;1.95;;;;;;;;;;4884526;29;20498;-96
2021/12/24 09:59:42;;;;;;;3.72;2.05;;;;;;;;;;4885058;29;20458;-95
2021/12/24 10:02:15;;;;;;;2.67;2.03;;;;;;;;;;4883880;29;20040;-95
2021/12/24 10:04:42;;;;;;;2.13;1.92;;;;;;;;;;4883796;29;20406;-95
2021/12/24 10:07:11;;;;;;;3.08;2.15;;;;;;;;;;4883997;29;20048;-95
2021/12/24 10:09:42;;;;;;;2.40;2.20;;;;;;;;;;4883641;29;20052;-95
2021/12/24 10:12:08;;;;;;;2.50;2.22;;;;;;;;;;4883636;29;20048;-93
2021/12/24 10:14:39;;;;;;;1.98;1.80;;;;;;;;;;4884728;29;20055;-93
2021/12/24 10:17:12;;;;;;;3.00;2.40;;;;;;;;;;4885307;29;20056;-93
2021/12/24 10:19:52;;;;;;;2.58;2.30;;;;;;;;;;4884561;29;20053;-93
2021/12/24 10:22:19;;;;;;;6.25;2.30;;;;;;;;;;4884305;29;20139;-94
2021/12/24 10:25:05;;;;;;;2.22;2.00;;;;;;;;;;4884623;29;20118;-94
2021/12/24 10:27:32;;;;;;;1.95;1.73;;;;;;;;;;4884374;29;20045;-93
2021/12/24 10:29:59;;;;;;;2.20;2.00;;;;;;;;;;4883649;29;20136;-93
2021/12/24 10:32:26;;;;;;;2.67;2.42;;;;;;;;;;4884662;29;20049;-94
2021/12/24 10:34:55;;;;;;;2.92;2.20;;;;;;;;;;4883733;29;20076;-95
2021/12/24 10:37:22;;;;;;;1.90;1.80;;;;;;;;;;4883921;29;20131;-94
2021/12/24 10:39:55;;;;;;;2.10;1.90;;;;;;;;;;4883828;29;20413;-95
2021/12/24 10:42:27;;;;;;;2.28;2.08;;;;;;;;;;4884041;29;20498;-94
2021/12/24 10:44:54;;;;;;;5.70;2.28;;;;;;;;;;4883753;29;20059;-93
2021/12/24 10:47:26;;;;;;;3.17;2.63;;;;;;;;;;4883860;29;20114;-94
2021/12/24 10:50:07;;;;;;;2.67;2.13;;;;;;;;;;4883828;29;20052;-94
2021/12/24 10:55:24;;;;;;;2.65;2.20;;;;;;;;;;4883517;29;20053;-95
2021/12/24 10:57:53;;;;;;;2.53;2.08;;;;;;;;;;4884233;29;20048;-94
2021/12/24 11:00:21;;;;;;;6.90;2.30;;;;;;;;;;4883464;29;20131;-94
2021/12/24 11:02:53;;;;;;;2.50;2.30;;;;;;;;;;4883580;29;20150;-94
2021/12/24 11:05:25;;;;;;;3.33;2.60;;;;;;;;;;4883999;29;20056;-94
2021/12/24 11:07:51;;;;;;;4.53;2.63;;;;;;;;;;4883439;29;20077;-94
2021/12/24 11:10:23;;;;;;;5.07;2.97;;;;;;;;;;4899078;29;20100;-95
2021/12/24 11:12:54;;;;;;;5.00;3.00;;;;;;;;;;4884156;29;20048;-95
2021/12/24 11:15:40;;;;;;;5.57;3.30;;;;;;;;;;4884455;29;20056;-95
2021/12/24 11:18:16;;;;;;;3.03;2.72;;;;;;;;;;4868115;29;20529;-96
2021/12/24 11:20:45;;;;;;;3.97;2.97;;;;;;;;;;4883692;29;20055;-96
2021/12/24 11:23:25;;;;;;;4.30;3.35;;;;;;;;;;4883892;29;20052;-96
2021/12/24 11:25:53;;;;;;;3.08;2.78;;;;;;;;;;4883753;29;20131;-96
2021/12/24 11:28:19;;;;;;;3.13;2.80;;;;;;;;;;4884241;29;20044;-96
2021/12/24 11:30:49;;;;;;;3.42;3.10;;;;;;;;;;4883146;29;20064;-95
2021/12/24 11:33:20;;;;;;;3.63;2.92;;;;;;;;;;4883401;29;20057;-96
2021/12/24 11:35:47;;;;;;;4.95;3.03;;;;;;;;;;4883472;29;20044;-96
2021/12/24 11:38:37;;;;;;;;;;;;;;;;;;;;;
2021/12/24 11:41:17;;;;;;;3.40;2.65;;;;;;;;;;4888177;29;20443;-96
2021/12/24 11:44:07;;;;;;;4.78;3.58;;;;;;;;;;4903192;29;20087;-96
2021/12/24 11:47:11;;;;;;;3.83;2.85;;;;;;;;;;4886837;29;20048;-96
2021/12/24 11:49:51;;;;;;;3.85;2.97;;;;;;;;;;4884729;29;20060;-96
2021/12/24 11:52:26;;;;;;;3.15;2.78;;;;;;;;;;4886235;29;20052;-96
2021/12/24 11:58:18;;;;;;;6.82;2.92;;;;;;;;;;4812956;29;20085;-96
2021/12/24 12:01:01;;;;;;;;;;;;;;;;;;;;;
2021/12/24 12:04:09;;;;;;;;;;;;;;;;;;;;;
2021/12/24 12:06:53;;;;;;;3.67;3.15;;;;;;;;;;4761975;30;20155;-96
2021/12/24 12:12:41;;;;;;;3.78;3.33;;;;;;;;;;4711104;30;20123;-96
2021/12/24 12:18:43;;;;;;;;;;;;;;;;;;;;;
2021/12/24 12:21:43;;;;;;;3.90;3.33;;;;;;;;;;4694154;30;20092;-96
2021/12/24 12:28:15;;;;;;;;;;;;;;;;;;;;;
2021/12/24 12:31:30;;;;;;;6.15;3.83;;;;;;;;;;4622202;31;20059;-96
2021/12/24 12:34:27;;;;;;;3.25;2.83;;;;;;;;;;4607094;31;20059;-96
2021/12/24 12:37:26;;;;;;;;;;;;;;;;;;;;;
2021/12/24 12:51:07;;;;;;;;;;;;;;;;;;;;;
2021/12/24 13:35:44;;;;;;;;;;;;;;;;;;;;;
2021/12/24 13:38:28;;;;;;;;;;;;;;;;;;;;;
2021/12/24 13:42:04;;;;;;;;;;;;;;;;;;;;;
2021/12/24 13:45:38;;;;;;;;;;;;;;;;;;;;;
2021/12/24 14:04:39;;;;;;;;;;;;;;;;;;;;;
2021/12/24 14:11:01;;;;;;;;;;;;;;;;;;;;;
2021/12/24 14:14:07;;;;;;;5.70;3.13;;;;;;;;;;5908069;24;20025;-96
2021/12/24 14:24:39;;;;;;;2.42;0.80;;;;;;;;;;5801620;24;20035;-95
2021/12/24 14:27:42;;;;;;;;;;;;;;;;;;;;;
2021/12/24 14:43:57;;;;;;;0.77;0.77;;;;;;;;;;6226683;23;20024;-96
2021/12/24 16:03:37;;;;;;;;;;;;;;;;;;;;;
2021/12/24 16:16:07;;;;;;;9.25;4.35;;;;;;;;;;5879217;24;20061;-96
2021/12/24 16:18:54;;;;;;;14.32;5.72;;;;;;;;;;5830282;24;20128;-96
2021/12/24 16:21:57;;;;;;;11.75;6.00;;;;;;;;;;5812726;24;20548;-96
2021/12/24 16:24:34;;;;;;;21.77;7.60;;;;;;;;;;5836819;24;20071;-96
2021/12/24 16:27:27;;;;;;;9.90;5.80;;;;;;;;;;5833706;24;20054;-96
2021/12/24 16:30:04;;;;;;;16.50;7.05;;;;;;;;;;5830534;24;20082;-95
2021/12/24 16:32:50;;;;;;;;;;;;;;;;;;;;;
2021/12/24 16:35:26;;;;;;;12.48;6.25;;;;;;;;;;5852371;24;20022;-96
2021/12/24 16:37:52;;;;;;;12.23;6.75;;;;;;;;;;5830465;24;20026;-96
2021/12/24 16:40:24;;;;;;;13.73;6.45;;;;;;;;;;5833224;24;20018;-96
2021/12/24 16:43:07;;;;;;;13.98;5.68;;;;;;;;;;5842607;24;20090;-96
2021/12/24 16:45:36;;;;;;;14.07;7.00;;;;;;;;;;5901302;24;20457;-96
2021/12/24 16:48:11;;;;;;;12.82;6.63;;;;;;;;;;5937576;24;20028;-96
2021/12/24 16:50:45;;;;;;;10.32;6.50;;;;;;;;;;6046721;23;20017;-96
2021/12/24 16:53:40;;;;;;;17.63;7.30;;;;;;;;;;6138559;23;20020;-96
2021/12/24 16:56:06;;;;;;;10.35;6.38;;;;;;;;;;6162297;23;20021;-96
2021/12/24 16:58:37;;;;;;;12.95;7.65;;;;;;;;;;6138675;23;20017;-96
2021/12/24 17:01:06;;;;;;;16.67;6.75;;;;;;;;;;6139505;23;20020;-96
2021/12/24 17:03:35;;;;;;;14.20;7.32;;;;;;;;;;6133656;23;20018;-96
2021/12/24 17:06:09;;;;;;;15.73;8.15;;;;;;;;;;6136950;23;20025;-96
2021/12/24 17:08:52;;;;;;;16.20;7.53;;;;;;;;;;6138043;23;20099;-96
2021/12/24 17:11:24;;;;;;;17.95;8.65;;;;;;;;;;6138742;23;20017;-95
2021/12/24 17:14:01;;;;;;;16.20;7.50;;;;;;;;;;6139998;23;20021;-96
2021/12/24 17:16:36;;;;;;;14.88;7.40;;;;;;;;;;6138406;23;20024;-96
2021/12/24 17:19:10;;;;;;;15.32;8.10;;;;;;;;;;6140182;23;20510;-96
2021/12/24 17:21:46;;;;;;;16.45;7.45;;;;;;;;;;6138919;23;20083;-96
2021/12/24 17:24:12;;;;;;;10.85;6.78;;;;;;;;;;6141698;23;20103;-96
2021/12/24 17:26:42;;;;;;;17.55;8.73;;;;;;;;;;6140546;23;20028;-96
2021/12/24 17:29:16;;;;;;;13.40;7.88;;;;;;;;;;6142077;23;20040;-96
2021/12/24 17:31:59;;;;;;;16.38;8.00;;;;;;;;;;6138412;23;20332;-96
2021/12/24 17:34:26;;;;;;;15.93;8.13;;;;;;;;;;6139318;23;20017;-96
2021/12/24 17:36:52;;;;;;;14.32;7.35;;;;;;;;;;6140168;23;20021;-96
2021/12/24 17:39:21;;;;;;;16.58;7.82;;;;;;;;;;6141745;23;20021;-96
2021/12/24 17:41:49;;;;;;;13.07;7.75;;;;;;;;;;6140580;23;20048;-96
2021/12/24 17:48:03;;;;;;;18.58;11.18;;;;;;;;;;6218387;22;20104;-96
2021/12/24 17:50:29;;;;;;;15.25;7.93;;;;;;;;;;6169132;23;20044;-96
2021/12/24 17:53:01;;;;;;;10.30;6.65;;;;;;;;;;6169928;23;20020;-96
2021/12/24 17:55:33;;;;;;;11.82;7.22;;;;;;;;;;6169315;23;20021;-96
2021/12/24 17:57:59;;;;;;;10.80;6.53;;;;;;;;;;6171136;23;20020;-96
2021/12/24 18:00:26;;;;;;;13.00;6.47;;;;;;;;;;6168434;23;20017;-96
2021/12/24 18:02:59;;;;;;;11.82;6.10;;;;;;;;;;6171244;23;20017;-96
2021/12/24 18:05:26;;;;;;;9.77;6.50;;;;;;;;;;6169851;23;20024;-96
2021/12/24 18:07:58;;;;;;;12.48;6.85;;;;;;;;;;6173999;23;20016;-96
2021/12/24 18:10:30;;;;;;;10.60;6.55;;;;;;;;;;6171914;23;20059;-96
2021/12/24 18:12:57;;;;;;;11.95;7.07;;;;;;;;;;6171922;23;20027;-96
2021/12/24 18:15:29;;;;;;;16.95;6.20;;;;;;;;;;6173732;23;20017;-96
2021/12/24 18:18:00;;;;;;;9.35;5.72;;;;;;;;;;6169471;23;20055;-96
2021/12/24 18:20:27;;;;;;;7.35;5.10;;;;;;;;;;6173455;23;20013;-96
2021/12/24 18:22:57;;;;;;;9.73;5.28;;;;;;;;;;6169164;23;20028;-96
2021/12/24 18:25:29;;;;;;;9.50;5.53;;;;;;;;;;6170652;23;20044;-96
2021/12/24 18:27:58;;;;;;;9.95;5.97;;;;;;;;;;6173208;23;20021;-96
2021/12/24 18:30:27;;;;;;;12.57;6.32;;;;;;;;;;6167942;23;20013;-96
2021/12/24 18:32:53;;;;;;;9.80;5.93;;;;;;;;;;6169293;23;20021;-96
2021/12/24 18:35:20;;;;;;;8.32;5.55;;;;;;;;;;6174083;23;20024;-96
2021/12/24 18:38:05;;;;;;;12.27;6.00;;;;;;;;;;6174822;23;20027;-96
2021/12/24 18:40:32;;;;;;;9.95;5.78;;;;;;;;;;6172333;23;20028;-96
2021/12/24 18:42:59;;;;;;;11.68;5.30;;;;;;;;;;6176887;23;20419;-96
2021/12/24 18:45:30;;;;;;;11.15;7.18;;;;;;;;;;6172024;23;20104;-96
2021/12/24 18:47:56;;;;;;;9.38;4.97;;;;;;;;;;6172788;23;20071;-96
2021/12/24 18:50:22;;;;;;;9.93;5.38;;;;;;;;;;6173729;23;20021;-96
2021/12/24 18:52:49;;;;;;;10.13;5.25;;;;;;;;;;6173921;23;20012;-96
2021/12/24 18:55:16;;;;;;;11.70;6.82;;;;;;;;;;6171828;23;20043;-96
2021/12/24 18:57:45;;;;;;;10.82;5.47;;;;;;;;;;6171794;23;20020;-96
2021/12/24 19:00:24;;;;;;;9.63;5.50;;;;;;;;;;6173543;23;20026;-96
2021/12/24 19:02:51;;;;;;;17.85;6.03;;;;;;;;;;6168796;23;20051;-94
2021/12/24 20:07:21;;;;;;;10.20;2.90;;;;;;;;;;6224772;22;20083;-93
2021/12/24 20:48:03;;;;;;;7.43;3.25;;;;;;;;;;6227343;22;20019;-92
2021/12/24 20:54:10;;;;;;;6.40;4.10;;;;;;;;;;6203168;23;20025;-92
2021/12/24 21:09:19;;;;;;;;;;;;;;;;;;;;;
2021/12/24 22:11:31;;;;;;;;;;;;;;;;;;;;;
2021/12/24 22:14:06;;;;;;;4.90;1.80;;;;;;;;;;6142627;22;20051;-92
2021/12/24 22:17:09;;;;;;;2.05;1.20;;;;;;;;;;6196706;23;20025;-93
2021/12/24 23:02:46;;;;;;;7.80;1.40;;;;;;;;;;6242438;22;20322;-93
2021/12/24 23:05:12;;;;;;;4.47;2.03;;;;;;;;;;6202845;23;20052;-94
2021/12/24 23:07:38;;;;;;;10.10;2.55;;;;;;;;;;6202930;23;20016;-95
2021/12/24 23:10:05;;;;;;;6.07;1.10;;;;;;;;;;6204699;23;20020;-94
2021/12/24 23:15:09;;;;;;;8.73;1.75;;;;;;;;;;6245789;22;20020;-94
2021/12/24 23:17:37;;;;;;;1.67;1.15;;;;;;;;;;6199254;23;20051;-94
2021/12/24 23:20:03;;;;;;;1.73;1.40;;;;;;;;;;6199743;23;20024;-93
2021/12/24 23:22:29;;;;;;;3.63;1.48;;;;;;;;;;6202692;23;20027;-93
2021/12/24 23:28:20;;;;;;;3.58;1.30;;;;;;;;;;6072561;23;20019;-93
2021/12/24 23:31:25;;;;;;;6.55;2.38;;;;;;;;;;6053628;23;20038;-94
2021/12/24 23:34:07;;;;;;;6.70;2.35;;;;;;;;;;5994663;23;20028;-93
2021/12/24 23:37:20;;;;;;;4.35;1.33;;;;;;;;;;5966331;23;20019;-93
2021/12/24 23:43:31;;;;;;;2.63;1.58;;;;;;;;;;5933174;24;20031;-94
2021/12/24 23:58:20;;;;;;;1.20;1.10;;;;;;;;;;6249888;22;20115;-94
